createdAt,value
2022-09-23T00:00:18.921Z,51.290413
2022-09-23T00:01:18.951Z,51.290581
2022-09-23T00:02:18.965Z,51.291359
2022-09-23T00:03:18.863Z,51.291183
2022-09-23T00:04:18.860Z,51.291401
2022-09-23T00:05:18.833Z,51.291149
2022-09-23T00:06:18.850Z,51.291222
2022-09-23T00:07:18.835Z,51.291115
2022-09-23T00:08:18.800Z,51.291134
2022-09-23T00:09:18.797Z,51.291142
2022-09-23T00:10:18.789Z,51.291134
2022-09-23T00:11:18.802Z,51.291245
2022-09-23T00:12:29.946Z,51.291206
2022-09-23T00:13:18.801Z,51.291176
2022-09-23T00:14:18.746Z,51.291206
2022-09-23T00:15:18.723Z,51.291267
2022-09-23T00:16:18.800Z,51.291294
2022-09-23T00:17:18.714Z,51.291206
2022-09-23T00:18:18.709Z,51.291103
2022-09-23T00:19:18.679Z,51.291115
2022-09-23T00:20:18.695Z,51.291115
2022-09-23T00:21:18.702Z,51.291203
2022-09-23T00:22:18.638Z,51.291256
2022-09-23T00:23:18.647Z,51.291256
2022-09-23T00:24:18.654Z,51.291237
2022-09-23T00:25:18.658Z,51.291298
2022-09-23T00:26:18.613Z,51.291237
2022-09-23T00:27:18.652Z,51.291233
2022-09-23T00:28:18.585Z,51.291248
2022-09-23T00:29:19.379Z,51.291210
2022-09-23T00:30:18.574Z,51.291027
2022-09-23T00:31:18.619Z,51.291378
2022-09-23T00:32:18.594Z,51.291397
2022-09-23T00:33:18.542Z,51.291344
2022-09-23T00:34:18.542Z,51.291241
2022-09-23T00:35:18.530Z,51.291092
2022-09-23T00:36:18.509Z,51.291134
2022-09-23T00:37:18.503Z,51.291245
2022-09-23T00:38:19.262Z,51.291222
2022-09-23T00:39:18.496Z,51.291225
2022-09-23T00:40:18.499Z,51.291332
2022-09-23T00:41:18.450Z,51.291279
2022-09-23T00:42:18.471Z,51.291195
2022-09-23T00:43:18.461Z,51.291252
2022-09-23T00:44:18.415Z,51.291206
2022-09-23T00:45:18.424Z,51.291237
2022-09-23T00:46:18.431Z,51.291248
2022-09-23T00:47:18.398Z,51.291264
2022-09-23T00:48:18.415Z,51.291290
2022-09-23T00:49:18.391Z,51.291210
2022-09-23T00:50:18.360Z,51.291206
2022-09-23T00:51:18.351Z,51.291241
2022-09-23T00:52:18.338Z,51.291275
2022-09-23T00:53:18.313Z,51.291225
2022-09-23T00:54:18.328Z,51.291229
2022-09-23T00:55:18.304Z,51.291130
2022-09-23T00:56:18.289Z,51.291214
2022-09-23T00:57:18.276Z,51.291447
2022-09-23T00:58:18.270Z,51.291134
2022-09-23T00:59:18.295Z,51.291241
2022-09-23T01:00:18.250Z,51.291534
2022-09-23T01:01:18.257Z,51.291267
2022-09-23T01:02:18.295Z,51.291367
2022-09-23T01:03:18.211Z,51.291473
2022-09-23T01:04:18.233Z,51.291592
2022-09-23T01:05:18.205Z,51.291485
2022-09-23T01:06:18.210Z,51.291306
2022-09-23T01:07:18.173Z,51.291336
2022-09-23T01:08:18.154Z,51.291374
2022-09-23T01:09:18.146Z,51.291492
2022-09-23T01:10:18.149Z,51.291397
2022-09-23T01:11:18.143Z,51.291241
2022-09-23T01:12:18.149Z,51.291214
2022-09-23T01:13:18.089Z,51.291080
2022-09-23T01:14:18.099Z,51.290989
2022-09-23T01:15:18.082Z,51.291107
2022-09-23T01:16:18.126Z,51.291241
2022-09-23T01:17:18.047Z,51.291264
2022-09-23T01:18:18.058Z,51.291271
2022-09-23T01:19:18.050Z,51.291241
2022-09-23T01:20:18.031Z,51.291286
2022-09-23T01:21:18.003Z,51.291233
2022-09-23T01:22:17.996Z,51.291180
2022-09-23T01:23:17.972Z,51.291031
2022-09-23T01:24:18.008Z,51.291016
2022-09-23T01:25:18.010Z,51.291107
2022-09-23T01:26:17.939Z,51.291172
2022-09-23T01:27:18.934Z,51.291130
2022-09-23T01:28:17.936Z,51.291191
2022-09-23T01:29:17.920Z,51.291306
2022-09-23T01:30:17.921Z,51.291340
2022-09-23T01:31:17.978Z,51.291260
2022-09-23T01:32:17.878Z,51.291168
2022-09-23T01:33:17.865Z,51.291325
2022-09-23T01:34:17.865Z,51.291321
2022-09-23T01:35:17.852Z,51.291195
2022-09-23T01:36:17.873Z,51.290932
2022-09-23T01:37:17.847Z,51.291142
2022-09-23T01:38:17.835Z,51.290882
2022-09-23T01:39:17.806Z,51.291027
2022-09-23T01:40:17.864Z,51.291264
2022-09-23T01:41:17.805Z,51.291367
2022-09-23T01:42:17.774Z,51.291107
2022-09-23T01:43:17.770Z,51.291618
2022-09-23T01:44:17.734Z,51.292789
2022-09-23T01:45:17.745Z,51.292641
2022-09-23T01:46:17.738Z,51.291550
2022-09-23T01:47:17.733Z,51.291218
2022-09-23T01:48:17.718Z,51.290447
2022-09-23T01:49:17.722Z,51.290752
2022-09-23T01:50:17.694Z,51.291088
2022-09-23T01:51:17.706Z,51.291092
2022-09-23T01:52:17.703Z,51.290909
2022-09-23T01:53:17.638Z,51.290894
2022-09-23T01:54:17.642Z,51.291180
2022-09-23T01:55:17.640Z,51.291138
2022-09-23T01:56:17.619Z,51.290783
2022-09-23T01:57:17.647Z,51.290833
2022-09-23T01:58:17.591Z,51.290836
2022-09-23T01:59:17.593Z,51.291046
2022-09-23T02:00:17.554Z,51.291634
2022-09-23T02:01:17.636Z,51.291409
2022-09-23T02:02:17.610Z,51.291267
2022-09-23T02:03:17.559Z,51.291248
2022-09-23T02:04:17.550Z,51.291298
2022-09-23T02:05:17.526Z,51.291241
2022-09-23T02:06:17.553Z,51.291313
2022-09-23T02:07:17.496Z,51.291248
2022-09-23T02:08:17.518Z,51.291203
2022-09-23T02:09:18.479Z,51.291256
2022-09-23T02:10:17.504Z,51.290905
2022-09-23T02:11:17.462Z,51.291290
2022-09-23T02:12:17.477Z,51.291222
2022-09-23T02:13:17.477Z,51.291283
2022-09-23T02:14:17.447Z,51.291180
2022-09-23T02:15:17.427Z,51.291451
2022-09-23T02:16:17.405Z,51.291264
2022-09-23T02:17:17.391Z,51.291172
2022-09-23T02:18:17.411Z,51.291134
2022-09-23T02:19:17.382Z,51.291145
2022-09-23T02:20:17.366Z,51.291164
2022-09-23T02:21:17.360Z,51.291286
2022-09-23T02:22:17.324Z,51.291145
2022-09-23T02:23:17.349Z,51.291172
2022-09-23T02:24:17.341Z,51.291023
2022-09-23T02:25:17.441Z,51.291286
2022-09-23T02:26:17.289Z,51.291325
2022-09-23T02:27:17.292Z,51.291260
2022-09-23T02:28:17.501Z,51.291149
2022-09-23T02:29:17.281Z,51.291027
2022-09-23T02:30:17.263Z,51.291367
2022-09-23T02:31:17.255Z,51.291519
2022-09-23T02:32:17.239Z,51.291584
2022-09-23T02:33:17.235Z,51.291225
2022-09-23T02:34:17.230Z,51.291061
2022-09-23T02:35:17.189Z,51.290882
2022-09-23T02:36:17.175Z,51.291458
2022-09-23T02:37:17.340Z,51.291336
2022-09-23T02:38:17.148Z,51.291416
2022-09-23T02:39:17.185Z,51.291237
2022-09-23T02:40:17.217Z,51.291233
2022-09-23T02:41:17.126Z,51.290802
2022-09-23T02:42:17.122Z,51.289845
2022-09-23T02:43:17.105Z,51.295738
2022-09-23T02:44:17.127Z,51.291302
2022-09-23T02:45:17.080Z,51.287506
2022-09-23T02:46:17.124Z,51.288376
2022-09-23T02:47:17.041Z,51.290638
2022-09-23T02:48:17.058Z,51.293449
2022-09-23T02:49:17.035Z,51.292149
2022-09-23T02:50:17.052Z,51.291862
2022-09-23T02:51:17.015Z,51.291828
2022-09-23T02:52:17.018Z,51.291447
2022-09-23T02:53:16.985Z,51.291306
2022-09-23T02:54:17.005Z,51.291168
2022-09-23T02:55:16.999Z,51.291164
2022-09-23T02:56:16.958Z,51.291168
2022-09-23T02:57:16.946Z,51.291550
2022-09-23T02:58:16.921Z,51.291237
2022-09-23T04:39:41.487Z,51.291023
2022-09-23T04:40:41.571Z,51.291241
2022-09-23T04:41:41.467Z,51.291214
2022-09-23T04:42:41.459Z,51.291325
2022-09-23T04:43:41.452Z,51.291424
2022-09-23T04:44:41.859Z,51.291355
2022-09-23T04:45:41.416Z,51.291332
2022-09-23T04:46:41.523Z,51.291164
2022-09-23T04:47:41.384Z,51.291164
2022-09-23T04:48:41.420Z,51.291164
2022-09-23T04:49:41.371Z,51.291557
2022-09-23T04:50:41.357Z,51.291481
2022-09-23T04:51:41.352Z,51.291328
2022-09-23T04:52:41.329Z,51.291328
2022-09-23T04:53:41.722Z,51.292385
2022-09-23T04:54:41.325Z,51.291672
2022-09-23T04:55:41.301Z,51.291584
2022-09-23T04:56:41.297Z,51.291691
2022-09-23T04:57:41.259Z,51.291904
2022-09-23T04:58:41.274Z,51.291698
2022-09-23T04:59:41.264Z,51.291698
2022-09-23T05:00:41.258Z,51.291637
2022-09-23T05:01:41.279Z,51.291241
2022-09-23T05:02:41.202Z,51.291203
2022-09-23T05:03:41.204Z,51.291264
2022-09-23T05:04:41.195Z,51.291355
2022-09-23T05:05:41.176Z,51.291309
2022-09-23T05:06:41.147Z,51.291286
2022-09-23T05:07:41.147Z,51.291397
2022-09-23T05:08:41.138Z,51.291359
2022-09-23T05:09:41.153Z,51.291313
2022-09-23T05:10:41.121Z,51.291260
2022-09-23T05:11:41.117Z,51.291275
2022-09-23T05:12:41.086Z,51.291237
2022-09-23T05:13:41.097Z,51.291164
2022-09-23T05:14:41.103Z,51.291225
2022-09-23T05:15:41.062Z,51.291187
2022-09-23T05:16:41.123Z,51.291183
2022-09-23T05:17:41.033Z,51.291073
2022-09-23T05:18:41.012Z,51.291210
2022-09-23T05:19:41.052Z,51.291164
2022-09-23T05:20:40.997Z,51.291183
2022-09-23T05:21:40.996Z,51.291176
2022-09-23T05:22:40.963Z,51.291134
2022-09-23T05:23:40.966Z,51.291088
2022-09-23T05:24:40.949Z,51.291080
2022-09-23T05:25:40.991Z,51.291100
2022-09-23T05:26:40.927Z,51.291180
2022-09-23T05:27:40.925Z,51.291168
2022-09-23T05:28:40.903Z,51.291164
2022-09-23T05:29:40.880Z,51.291122
2022-09-23T05:30:40.943Z,51.291222
2022-09-23T05:31:41.160Z,51.291248
2022-09-23T05:32:40.862Z,51.291275
2022-09-23T05:33:40.852Z,51.291294
2022-09-23T05:34:40.839Z,51.291210
2022-09-23T05:35:40.827Z,51.291134
2022-09-23T05:36:40.841Z,51.291172
2022-09-23T05:37:40.794Z,51.291168
2022-09-23T05:38:40.784Z,51.291218
2022-09-23T05:39:41.530Z,51.291214
2022-09-23T05:40:40.873Z,51.291222
2022-09-23T05:41:40.808Z,51.291241
2022-09-23T05:42:40.756Z,51.291309
2022-09-23T05:43:40.739Z,51.291416
2022-09-23T05:44:40.732Z,51.291355
2022-09-23T05:45:40.716Z,51.291359
2022-09-23T05:46:40.749Z,51.291416
2022-09-23T05:47:40.696Z,51.291382
2022-09-23T05:48:41.371Z,51.291340
2022-09-23T05:49:58.639Z,51.291290
2022-09-23T05:50:40.666Z,51.291336
2022-09-23T05:51:40.660Z,51.291237
2022-09-23T05:52:40.658Z,51.291290
2022-09-23T05:53:40.638Z,51.291245
2022-09-23T05:54:40.626Z,51.291271
2022-09-23T05:55:40.607Z,51.291222
2022-09-23T05:56:40.596Z,51.291229
2022-09-23T05:57:40.620Z,51.291168
2022-09-23T05:58:40.573Z,51.291187
2022-09-23T05:59:40.580Z,51.291225
2022-09-23T06:00:40.548Z,51.291195
2022-09-23T06:01:40.579Z,51.291275
2022-09-23T06:02:40.642Z,51.291378
2022-09-23T06:03:40.534Z,51.291363
2022-09-23T06:04:40.504Z,51.291462
2022-09-23T06:05:40.509Z,51.291336
2022-09-23T06:06:40.483Z,51.291328
2022-09-23T06:07:40.482Z,51.291283
2022-09-23T06:08:40.488Z,51.291115
2022-09-23T06:09:41.451Z,51.291157
2022-09-23T06:10:40.447Z,51.291252
2022-09-23T06:11:40.428Z,51.291180
2022-09-23T06:12:40.441Z,51.291187
2022-09-23T06:13:40.425Z,51.291317
2022-09-23T06:14:40.396Z,51.291332
2022-09-23T06:15:40.431Z,51.291252
2022-09-23T06:16:40.363Z,51.291275
2022-09-23T06:17:40.360Z,51.291115
2022-09-23T06:18:40.400Z,51.291096
2022-09-23T06:19:40.334Z,51.291237
2022-09-23T06:20:40.321Z,51.291252
2022-09-23T06:21:40.321Z,51.291195
2022-09-23T06:22:40.339Z,51.291176
2022-09-23T06:23:41.768Z,51.291248
2022-09-23T06:24:40.288Z,51.291245
2022-09-23T06:25:40.276Z,51.291245
2022-09-23T06:26:40.254Z,51.291172
2022-09-23T06:27:40.264Z,51.291130
2022-09-23T06:28:40.237Z,51.291161
2022-09-23T06:29:40.262Z,51.291176
2022-09-23T06:30:40.207Z,51.291119
2022-09-23T06:31:40.254Z,51.291218
2022-09-23T06:32:40.195Z,51.291187
2022-09-23T06:33:40.187Z,51.291332
2022-09-23T06:34:50.366Z,51.291275
2022-09-23T06:35:40.791Z,51.291874
2022-09-23T06:36:44.570Z,51.291428
2022-09-23T06:37:40.137Z,51.291309
2022-09-23T06:38:40.127Z,51.291283
2022-09-23T06:39:40.115Z,51.291233
2022-09-23T06:40:40.208Z,51.291233
2022-09-23T06:41:40.077Z,51.291283
2022-09-23T06:42:40.086Z,51.291260
2022-09-23T06:43:40.064Z,51.291306
2022-09-23T06:44:40.050Z,51.291164
2022-09-23T06:45:40.070Z,51.291073
2022-09-23T06:46:40.097Z,51.291237
2022-09-23T06:47:40.030Z,51.291260
2022-09-23T06:48:42.852Z,51.291222
2022-09-23T06:49:40.006Z,51.291237
2022-09-23T06:50:39.997Z,51.291241
2022-09-23T06:51:39.989Z,51.291210
2022-09-23T06:52:39.969Z,51.291153
2022-09-23T06:53:39.964Z,51.291199
2022-09-23T06:54:39.948Z,51.291138
2022-09-23T06:55:39.936Z,51.291248
2022-09-23T06:56:40.230Z,51.291191
2022-09-23T06:57:39.912Z,51.291149
2022-09-23T06:58:39.890Z,51.291206
2022-09-23T06:59:40.895Z,51.291183
2022-09-23T07:00:39.876Z,51.291176
2022-09-23T07:01:40.004Z,51.291264
2022-09-23T07:02:39.947Z,51.291229
2022-09-23T07:03:39.849Z,51.291286
2022-09-23T07:04:39.852Z,51.291252
2022-09-23T07:05:39.814Z,51.291245
2022-09-23T07:06:39.811Z,51.291248
2022-09-23T07:07:39.814Z,51.291245
2022-09-23T07:08:39.786Z,51.291260
2022-09-23T07:09:39.762Z,51.291340
2022-09-23T07:10:39.776Z,51.291229
2022-09-23T07:11:39.773Z,51.291248
2022-09-23T07:12:39.773Z,51.291145
2022-09-23T07:13:39.726Z,51.291027
2022-09-23T07:14:39.717Z,51.291172
2022-09-23T07:15:39.764Z,51.291237
2022-09-23T07:16:39.685Z,51.291218
2022-09-23T07:17:39.726Z,51.291241
2022-09-23T07:18:39.678Z,51.291256
2022-09-23T07:19:39.676Z,51.291321
2022-09-23T07:20:39.659Z,51.291252
2022-09-23T07:21:39.636Z,51.291256
2022-09-23T07:22:39.626Z,51.291248
2022-09-23T07:23:39.642Z,51.291203
2022-09-23T07:24:39.614Z,51.291260
2022-09-23T07:25:39.598Z,51.291199
2022-09-23T07:26:44.868Z,51.291222
2022-09-23T07:27:39.578Z,51.291153
2022-09-23T07:28:39.588Z,51.291237
2022-09-23T07:29:48.169Z,51.291210
2022-09-23T07:30:44.250Z,51.291199
2022-09-23T07:31:40.196Z,51.291164
2022-09-23T07:32:48.273Z,51.291164
2022-09-23T07:33:39.557Z,51.291111
2022-09-23T07:34:39.505Z,51.291210
2022-09-23T07:35:39.493Z,51.291172
2022-09-23T07:36:39.476Z,51.291199
2022-09-23T07:37:39.472Z,51.291222
2022-09-23T07:38:44.982Z,51.291203
2022-09-23T07:39:39.471Z,51.291229
2022-09-23T07:40:39.469Z,51.291088
2022-09-23T07:41:39.416Z,51.291130
2022-09-23T07:42:39.418Z,51.291142
2022-09-23T07:43:39.406Z,51.291168
2022-09-23T07:44:39.423Z,51.291229
2022-09-23T07:45:39.542Z,51.291191
2022-09-23T07:46:39.443Z,51.291153
2022-09-23T07:47:39.462Z,51.291149
2022-09-23T07:48:39.345Z,51.291164
2022-09-23T07:49:39.372Z,51.291248
2022-09-23T07:50:39.331Z,51.291302
2022-09-23T07:51:39.309Z,51.291195
2022-09-23T07:52:39.293Z,51.291126
2022-09-23T07:53:39.287Z,51.291206
2022-09-23T07:54:39.276Z,51.291248
2022-09-23T07:55:39.311Z,51.291279
2022-09-23T07:56:39.238Z,51.291206
2022-09-23T07:57:39.241Z,51.291309
2022-09-23T07:58:39.221Z,51.291214
2022-09-23T07:59:39.205Z,51.291233
2022-09-23T08:00:39.232Z,51.291176
2022-09-23T08:01:39.264Z,51.291130
2022-09-23T08:02:39.231Z,51.291096
2022-09-23T08:03:39.155Z,51.291145
2022-09-23T08:04:39.156Z,51.291264
2022-09-23T08:05:39.155Z,51.291290
2022-09-23T08:06:39.178Z,51.291214
2022-09-23T08:07:39.109Z,51.291111
2022-09-23T08:08:39.081Z,51.291134
2022-09-23T08:09:39.096Z,51.291214
2022-09-23T08:10:39.118Z,51.291134
2022-09-23T08:11:39.093Z,51.291168
2022-09-23T08:12:39.048Z,51.291351
2022-09-23T08:13:39.032Z,51.291359
2022-09-23T08:14:39.013Z,51.291477
2022-09-23T08:15:39.059Z,51.291317
2022-09-23T08:16:39.002Z,51.291199
2022-09-23T08:17:39.010Z,51.291267
2022-09-23T08:18:38.978Z,51.291271
2022-09-23T08:19:38.944Z,51.291237
2022-09-23T08:20:42.514Z,51.291206
2022-09-23T08:21:38.958Z,51.291241
2022-09-23T08:22:38.956Z,51.291180
2022-09-23T08:23:38.906Z,51.291077
2022-09-23T08:24:38.890Z,51.291256
2022-09-23T08:25:38.905Z,51.291218
2022-09-23T08:26:38.875Z,51.291187
2022-09-23T08:27:38.897Z,51.291195
2022-09-23T08:28:38.861Z,51.291245
2022-09-23T08:29:38.834Z,51.291214
2022-09-23T08:30:38.850Z,51.291168
2022-09-23T08:31:38.815Z,51.291218
2022-09-23T08:32:38.838Z,51.291252
2022-09-23T08:33:39.317Z,51.291225
2022-09-23T08:34:38.791Z,51.291283
2022-09-23T08:35:38.764Z,51.291340
2022-09-23T08:36:38.886Z,51.291252
2022-09-23T09:16:02.573Z,51.293545
2022-09-23T09:17:02.540Z,51.293545
2022-09-23T09:18:02.263Z,51.294159
2022-09-23T09:19:02.291Z,51.292141
2022-09-23T09:20:02.220Z,51.292141
2022-09-23T09:21:02.226Z,51.290764
2022-09-23T09:22:02.227Z,51.290710
2022-09-23T09:23:02.185Z,51.291206
2022-09-23T09:24:02.225Z,51.291138
2022-09-23T09:25:02.196Z,51.290977
2022-09-23T09:26:02.162Z,51.290882
2022-09-23T09:27:02.153Z,51.291031
2022-09-23T09:28:02.144Z,51.291050
2022-09-23T09:47:50.511Z,51.291176
2022-09-23T09:48:50.492Z,51.290997
2022-09-23T09:49:50.473Z,51.291012
2022-09-23T09:50:50.421Z,51.291054
2022-09-23T09:51:50.408Z,51.290947
2022-09-23T09:52:50.385Z,51.291187
2022-09-23T09:53:50.336Z,51.291473
2022-09-23T09:54:50.367Z,51.291187
2022-09-23T09:55:50.311Z,51.291286
2022-09-23T09:56:50.331Z,51.291409
2022-09-23T09:57:50.380Z,51.291180
2022-09-23T09:58:50.284Z,51.291229
2022-09-23T09:59:50.277Z,51.290985
2022-09-23T10:00:50.259Z,51.291119
2022-09-23T10:01:50.216Z,51.291332
2022-09-23T10:02:50.282Z,51.291130
2022-09-23T10:03:51.392Z,51.291195
2022-09-23T10:04:50.301Z,51.291069
2022-09-23T10:05:50.191Z,51.291183
2022-09-23T10:06:50.132Z,51.291283
2022-09-23T10:07:50.157Z,51.291264
2022-09-23T10:08:50.125Z,51.291161
2022-09-23T10:09:50.204Z,51.291252
2022-09-23T10:10:50.134Z,51.291176
2022-09-23T10:11:50.155Z,51.291142
2022-09-23T10:12:50.383Z,51.291103
2022-09-23T10:13:50.433Z,51.290951
2022-09-23T10:14:50.057Z,51.291073
2022-09-23T10:15:50.001Z,51.291100
2022-09-23T10:16:50.052Z,51.291309
2022-09-23T10:17:50.006Z,51.291328
2022-09-23T10:18:50.107Z,51.291279
2022-09-23T10:19:49.959Z,51.291191
2022-09-23T10:20:49.935Z,51.291054
2022-09-23T11:40:15.171Z,51.291092
2022-09-23T11:41:14.917Z,51.291058
2022-09-23T11:42:14.927Z,51.291199
2022-09-23T11:43:14.876Z,51.291119
2022-09-23T11:44:14.905Z,51.291245
2022-09-23T11:45:14.854Z,51.291248
2022-09-23T11:46:14.934Z,51.291218
2022-09-23T11:47:50.048Z,51.291214
2022-09-23T11:48:14.939Z,51.291164
2022-09-23T11:49:15.006Z,51.291153
2022-09-23T11:50:14.852Z,51.291206
2022-09-23T11:51:14.906Z,51.291164
2022-09-23T11:52:14.856Z,51.291164
2022-09-23T11:53:14.936Z,51.291142
2022-09-23T11:54:19.742Z,51.291134
2022-09-23T11:55:21.283Z,51.291187
2022-09-23T11:56:17.600Z,51.291206
2022-09-23T11:57:14.766Z,51.291294
2022-09-23T11:58:26.223Z,51.290779
2022-09-23T11:59:15.230Z,51.291203
2022-09-23T12:00:14.988Z,51.291397
2022-09-23T12:01:14.882Z,51.291298
2022-09-23T12:02:20.306Z,51.291283
2022-09-23T12:03:14.734Z,51.291256
2022-09-23T12:04:20.530Z,51.291229
2022-09-23T12:05:14.750Z,51.291084
2022-09-23T12:06:15.045Z,51.290226
2022-09-23T12:07:14.630Z,51.288731
2022-09-23T12:08:14.650Z,51.290417
2022-09-23T12:09:14.596Z,51.291374
2022-09-23T12:10:14.599Z,51.291374
2022-09-23T12:11:14.590Z,51.291218
2022-09-23T12:12:14.572Z,51.291161
2022-09-23T12:13:14.578Z,51.291180
2022-09-23T12:14:14.813Z,51.291115
2022-09-23T12:15:14.884Z,51.291077
2022-09-23T12:16:14.637Z,51.291206
2022-09-23T12:17:14.495Z,51.291168
2022-09-23T12:18:14.506Z,51.291245
2022-09-23T12:19:14.553Z,51.291271
2022-09-23T12:20:14.502Z,51.291321
2022-09-23T12:21:32.756Z,51.291172
2022-09-23T12:22:15.487Z,51.291065
2022-09-23T12:23:14.459Z,51.291233
2022-09-23T12:24:18.442Z,51.291180
2022-09-23T12:25:14.450Z,51.291187
2022-09-23T12:26:14.405Z,51.291069
2022-09-23T12:27:14.405Z,51.291042
2022-09-23T12:28:14.412Z,51.291172
2022-09-23T12:29:14.390Z,51.291153
2022-09-23T12:30:14.396Z,51.291183
2022-09-23T12:31:14.431Z,51.290974
2022-09-23T12:32:14.316Z,51.291119
2022-09-23T12:33:14.320Z,51.291168
2022-09-23T12:34:14.312Z,51.291149
2022-09-23T12:35:14.319Z,51.291168
2022-09-23T12:36:14.300Z,51.291195
2022-09-23T12:37:14.266Z,51.291134
2022-09-23T12:38:14.266Z,51.291142
2022-09-23T12:39:14.273Z,51.291149
2022-09-23T12:40:14.265Z,51.291412
2022-09-23T12:41:14.257Z,51.291443
2022-09-23T12:42:14.236Z,51.291260
2022-09-23T12:43:14.212Z,51.291115
2022-09-23T12:44:14.199Z,51.291115
2022-09-23T12:45:14.184Z,51.291088
2022-09-23T12:46:14.248Z,51.290768
2022-09-23T12:47:14.162Z,51.291115
2022-09-23T12:48:14.161Z,51.291206
2022-09-23T12:49:14.130Z,51.291210
2022-09-23T12:50:17.679Z,51.291119
2022-09-23T12:51:14.166Z,51.291092
2022-09-23T12:52:14.109Z,51.290947
2022-09-23T12:53:14.090Z,51.291309
2022-09-23T12:54:14.103Z,51.291615
2022-09-23T12:55:14.072Z,51.291283
2022-09-23T12:56:14.064Z,51.291321
2022-09-23T12:57:14.086Z,51.291203
2022-09-23T12:58:14.046Z,51.291203
2022-09-23T12:59:14.028Z,51.291115
2022-09-23T13:00:14.032Z,51.291172
2022-09-23T13:01:14.983Z,51.291172
2022-09-23T13:02:14.099Z,51.291168
2022-09-23T13:03:13.997Z,51.291252
2022-09-23T13:04:13.974Z,51.291439
2022-09-23T13:05:13.965Z,51.291248
2022-09-23T13:06:13.964Z,51.291187
2022-09-23T13:07:13.951Z,51.291153
2022-09-23T13:08:13.925Z,51.291222
2022-09-23T13:09:13.933Z,51.291248
2022-09-23T13:10:14.571Z,51.291252
2022-09-23T13:11:13.899Z,51.291122
2022-09-23T13:12:13.934Z,51.291183
2022-09-23T13:13:13.877Z,51.291195
2022-09-23T13:14:13.867Z,51.291195
2022-09-23T13:15:13.862Z,51.291210
2022-09-23T13:16:13.862Z,51.291256
2022-09-23T13:17:13.867Z,51.291203
2022-09-23T13:18:13.829Z,51.291275
2022-09-23T13:19:13.810Z,51.291248
2022-09-23T13:20:13.795Z,51.291206
2022-09-23T13:21:13.795Z,51.291203
2022-09-23T13:22:13.778Z,51.291229
2022-09-23T13:23:13.786Z,51.291161
2022-09-23T13:24:13.768Z,51.291290
2022-09-23T13:25:13.735Z,51.291245
2022-09-23T13:26:13.736Z,51.291286
2022-09-23T13:27:13.729Z,51.291183
2022-09-23T13:28:13.726Z,51.291233
2022-09-23T13:29:13.701Z,51.291248
2022-09-23T13:30:13.695Z,51.291264
2022-09-23T13:31:13.679Z,51.291283
2022-09-23T13:32:13.720Z,51.291328
2022-09-23T13:33:13.682Z,51.291264
2022-09-23T13:34:13.630Z,51.291214
2022-09-23T13:35:13.629Z,51.291378
2022-09-23T13:36:13.625Z,51.291374
2022-09-23T13:37:13.593Z,51.291172
2022-09-23T13:38:13.619Z,51.291157
2022-09-23T13:39:49.262Z,51.291225
2022-09-23T13:40:13.697Z,51.291233
2022-09-23T13:41:13.659Z,51.291245
2022-09-23T13:42:13.558Z,51.291355
2022-09-23T13:43:13.577Z,51.291298
2022-09-23T13:44:13.668Z,51.291302
2022-09-23T13:45:13.670Z,51.291256
2022-09-23T13:46:13.570Z,51.291328
2022-09-23T13:47:13.497Z,51.291275
2022-09-23T13:48:13.475Z,51.291248
2022-09-23T13:49:13.489Z,51.291225
2022-09-23T13:50:13.459Z,51.291340
2022-09-23T13:51:13.440Z,51.300400
2022-09-23T13:52:13.424Z,51.354553
2022-09-23T13:53:13.415Z,51.354553
2022-09-23T13:54:13.419Z,51.354553
2022-09-23T13:55:13.405Z,51.291252
2022-09-23T13:56:13.385Z,51.291622
2022-09-23T13:57:13.380Z,51.291260
2022-09-23T13:58:13.352Z,51.291206
2022-09-23T13:59:13.387Z,51.291348
2022-09-23T14:00:13.332Z,51.291203
2022-09-23T14:01:13.335Z,51.291058
2022-09-23T14:02:13.805Z,51.291058
2022-09-23T14:03:13.286Z,51.291058
2022-09-23T14:04:13.325Z,51.291058
2022-09-23T14:05:13.272Z,51.291058
2022-09-23T14:06:13.257Z,51.291058
2022-09-23T14:07:51.001Z,51.291058
2022-09-23T14:08:13.490Z,51.291058
2022-09-23T14:09:13.391Z,51.291058
2022-09-23T14:10:18.420Z,51.291058
2022-09-23T14:11:13.198Z,51.291058
2022-09-23T14:12:13.204Z,51.291058
2022-09-23T14:13:13.201Z,51.291058
2022-09-23T14:14:13.156Z,51.291512
2022-09-23T14:15:13.176Z,51.291477
2022-09-23T14:16:13.168Z,51.291252
2022-09-23T14:17:13.130Z,51.291000
2022-09-23T14:18:13.138Z,51.291058
2022-09-23T14:19:13.106Z,51.291176
2022-09-23T14:20:13.153Z,51.291542
2022-09-23T14:21:13.112Z,51.291477
2022-09-23T14:22:13.071Z,51.291157
2022-09-23T14:23:13.071Z,51.291061
2022-09-23T14:24:13.057Z,51.291225
2022-09-23T14:25:13.092Z,51.291447
2022-09-23T14:26:13.052Z,51.291294
2022-09-23T14:27:13.026Z,51.291378
2022-09-23T14:28:48.032Z,51.291206
2022-09-23T14:29:13.035Z,51.291004
2022-09-23T14:30:48.307Z,51.291016
2022-09-23T14:31:13.136Z,51.291313
2022-09-23T14:32:12.957Z,51.291279
2022-09-23T14:33:12.958Z,51.291264
2022-09-23T14:34:13.003Z,51.291332
2022-09-23T15:49:52.222Z,51.290981
2022-09-23T15:50:52.177Z,51.291252
2022-09-23T15:51:52.174Z,51.291176
2022-09-23T15:52:52.174Z,51.291199
2022-09-23T15:53:52.164Z,51.291256
2022-09-23T15:54:52.137Z,51.291275
2022-09-23T15:55:52.170Z,51.291260
2022-09-23T15:56:52.138Z,51.291206
2022-09-23T15:57:52.116Z,51.291138
2022-09-23T15:58:52.096Z,51.290859
2022-09-23T15:59:52.090Z,51.290859
2022-09-23T16:00:56.073Z,51.290859
2022-09-23T16:01:52.134Z,51.290859
2022-09-23T16:02:52.051Z,51.291119
2022-09-23T16:03:52.131Z,51.291576
2022-09-23T16:04:52.040Z,51.291424
2022-09-23T16:05:52.023Z,51.291718
2022-09-23T16:06:52.034Z,51.291592
2022-09-23T16:07:52.044Z,51.291149
2022-09-23T16:08:51.988Z,51.291340
2022-09-23T16:09:51.982Z,51.291374
2022-09-23T16:10:51.974Z,51.291374
2022-09-23T16:11:51.989Z,51.291374
2022-09-23T16:12:51.966Z,51.291374
2022-09-23T16:13:51.965Z,51.291374
2022-09-23T16:14:51.921Z,51.291374
2022-09-23T16:15:51.934Z,51.291374
2022-09-23T16:16:52.039Z,51.291374
2022-09-23T16:17:51.911Z,51.291130
2022-09-23T16:18:51.921Z,51.291130
2022-09-23T16:19:51.889Z,51.291199
2022-09-23T16:20:51.858Z,51.291161
2022-09-23T16:21:51.902Z,51.291298
2022-09-23T16:22:51.855Z,51.291229
2022-09-23T16:23:51.834Z,51.291115
2022-09-23T16:24:51.828Z,51.291153
2022-09-23T16:25:51.820Z,51.291054
2022-09-23T16:26:51.801Z,51.291233
2022-09-23T16:27:51.873Z,51.291325
2022-09-23T16:28:51.808Z,51.291187
2022-09-23T16:29:51.793Z,51.291100
2022-09-23T16:30:51.774Z,51.291088
2022-09-23T16:31:51.890Z,51.291161
2022-09-23T16:32:51.822Z,51.291180
2022-09-23T16:33:51.799Z,51.291206
2022-09-23T16:34:51.741Z,51.291279